Time;durP1;ratioP1;P1;durP2;ratioP2;P2;SDS_P1;SDS_P2;PMS_P1;PMS_P2;Temp;Humidity;BMP_temperature;BMP_pressure;BME280_temperature;BME280_humidity;BME280_pressure;Samples;Min_cycle;Max_cycle;Signal;HPM_P1;HPM_P2
2022/05/04 00:02:36;;;;;;;;;;;11.20;59.50;;;;;;5086647;27;86737;-49
2022/05/04 00:08:04;;;;;;;;;;;11.20;59.60;;;;;;5088428;27;87883;-48
2022/05/04 00:13:33;;;;;;;;;;;11.20;59.50;;;;;;5085823;27;87036;-48
2022/05/04 00:19:02;;;;;;;;;;;11.10;59.60;;;;;;5086441;27;86828;-48
2022/05/04 00:24:30;;;;;;;;;;;11.10;59.40;;;;;;5086242;27;86724;-49
2022/05/04 00:29:59;;;;;;;;;;;11.10;59.30;;;;;;5085748;27;87095;-48
2022/05/04 00:35:27;;;;;;;;;;;11.10;59.40;;;;;;5087846;27;87691;-48
2022/05/04 00:40:56;;;;;;;;;;;11.10;59.30;;;;;;5086106;27;86642;-48
2022/05/04 00:46:24;;;;;;;;;;;11.00;59.50;;;;;;5085995;27;86599;-48
2022/05/04 00:51:53;;;;;;;;;;;11.00;60.10;;;;;;5085462;27;86827;-50
2022/05/04 01:03:09;;;;;;;;;;;11.00;59.10;;;;;;5085143;27;87668;-48
2022/05/04 01:08:38;;;;;;;;;;;10.90;59.40;;;;;;5085493;27;86758;-48
2022/05/04 01:14:10;;;;;;;;;;;10.90;59.30;;;;;;5085209;27;86820;-49
2022/05/04 01:19:38;;;;;;;;;;;10.90;59.20;;;;;;5088076;27;86870;-48
2022/05/04 01:25:07;;;;;;;;;;;10.80;59.30;;;;;;5084675;27;86782;-48
2022/05/04 01:30:36;;;;;;;;;;;10.70;59.30;;;;;;5084760;27;87643;-49
2022/05/04 01:36:06;;;;;;;;;;;10.80;59.30;;;;;;5084894;27;86787;-48
2022/05/04 01:47:21;;;;;;;;;;;10.80;59.00;;;;;;5085092;27;86806;-47
2022/05/04 01:52:50;;;;;;;;;;;10.70;59.20;;;;;;5084975;27;86686;-48
2022/05/04 01:58:18;;;;;;;;;;;10.70;59.20;;;;;;5082113;27;89799;-48
2022/05/04 02:03:46;;;;;;;;;;;10.60;59.10;;;;;;5084842;27;86706;-48
2022/05/04 02:09:15;;;;;;;;;;;10.60;59.10;;;;;;5087673;27;86629;-49
2022/05/04 02:14:44;;;;;;;;;;;10.60;59.10;;;;;;5085059;27;86758;-50
2022/05/04 02:20:13;;;;;;;;;;;10.50;59.10;;;;;;5084245;27;87039;-48
2022/05/04 02:25:41;;;;;;;;;;;10.50;59.10;;;;;;5083948;27;87640;-48
2022/05/04 02:31:10;;;;;;;;;;;10.50;59.00;;;;;;5084486;27;86777;-48
2022/05/04 02:42:26;;;;;;;;;;;10.50;58.90;;;;;;5087665;27;86943;-48
2022/05/04 02:47:55;;;;;;;;;;;10.40;59.00;;;;;;5089813;27;86826;-48
2022/05/04 02:53:23;;;;;;;;;;;10.30;59.10;;;;;;5087211;27;87664;-48
2022/05/04 02:58:53;;;;;;;;;;;10.40;58.90;;;;;;5086941;27;86815;-48
2022/05/04 03:04:21;;;;;;;;;;;10.30;58.90;;;;;;5087299;27;87000;-48
2022/05/04 03:09:50;;;;;;;;;;;10.30;58.80;;;;;;5087527;27;86778;-48
2022/05/04 03:15:19;;;;;;;;;;;10.30;58.90;;;;;;5087320;27;86699;-48
2022/05/04 03:20:47;;;;;;;;;;;10.20;58.90;;;;;;5089346;27;87984;-48
2022/05/04 03:26:15;;;;;;;;;;;10.20;59.10;;;;;;5086920;27;86747;-48
2022/05/04 03:31:44;;;;;;;;;;;10.20;59.00;;;;;;5087317;27;86796;-47
2022/05/04 03:37:12;;;;;;;;;;;10.10;58.90;;;;;;5087257;27;87006;-48
2022/05/04 03:42:41;;;;;;;;;;;10.20;58.80;;;;;;5086609;27;87009;-48
2022/05/04 03:48:09;;;;;;;;;;;10.10;58.80;;;;;;5085051;27;88047;-47
2022/05/04 03:53:37;;;;;;;;;;;10.10;58.70;;;;;;5086921;27;86717;-49
2022/05/04 03:59:06;;;;;;;;;;;10.10;58.80;;;;;;5086953;27;87004;-49
2022/05/04 04:04:34;;;;;;;;;;;10.00;58.80;;;;;;5086388;27;87024;-48
2022/05/04 04:10:03;;;;;;;;;;;10.00;58.80;;;;;;5089060;27;86857;-48
2022/05/04 04:15:31;;;;;;;;;;;10.00;58.80;;;;;;5086045;27;87670;-47
2022/05/04 04:26:47;;;;;;;;;;;10.00;58.50;;;;;;5085945;27;86760;-47
2022/05/04 04:32:16;;;;;;;;;;;10.00;58.70;;;;;;5086225;27;86732;-47
2022/05/04 04:37:44;;;;;;;;;;;10.00;58.50;;;;;;5086075;27;86645;-48
2022/05/04 04:43:14;;;;;;;;;;;10.00;58.50;;;;;;5085407;27;87792;-47
2022/05/04 04:48:43;;;;;;;;;;;9.90;58.50;;;;;;5085626;27;86986;-48
2022/05/04 04:54:12;;;;;;;;;;;9.90;58.50;;;;;;5085873;27;86869;-48
2022/05/04 04:59:40;;;;;;;;;;;9.90;58.70;;;;;;5088068;27;86969;-49
2022/05/04 05:05:09;;;;;;;;;;;9.80;58.60;;;;;;5088171;27;86724;-48
2022/05/04 05:10:38;;;;;;;;;;;9.80;58.70;;;;;;5084487;27;88009;-48
2022/05/04 05:16:09;;;;;;;;;;;9.80;58.50;;;;;;5085593;27;86600;-48
2022/05/04 05:21:38;;;;;;;;;;;9.80;58.60;;;;;;5088460;27;86744;-47
2022/05/04 05:27:09;;;;;;;;;;;9.80;58.60;;;;;;5087709;27;86791;-47
2022/05/04 05:32:38;;;;;;;;;;;9.80;58.70;;;;;;5084888;27;87127;-47
2022/05/04 05:38:08;;;;;;;;;;;9.80;58.70;;;;;;5087017;27;87786;-47
2022/05/04 05:43:37;;;;;;;;;;;9.80;58.80;;;;;;5086729;27;86791;-47
2022/05/04 11:01:38;;;;;;;;;;;10.70;63.60;;;;;;5061416;27;87972;-48
2022/05/04 11:04:09;;;;;;;;;;;10.70;63.50;;;;;;5047043;28;88744;-48
2022/05/04 11:06:35;;;;;;;;;;;10.80;63.40;;;;;;5069606;27;87886;-49
2022/05/04 11:09:04;;;;;;;;;;;10.80;63.10;;;;;;5068919;27;87860;-48
2022/05/04 11:11:30;;;;;;;;;;;10.80;63.50;;;;;;5069446;27;86846;-48
2022/05/04 11:13:55;;;;;;;;;;;10.90;62.90;;;;;;5069719;27;86779;-48
2022/05/04 11:16:22;;;;;;;;;;;10.90;63.20;;;;;;5069226;27;87520;-51
2022/05/04 11:18:48;;;;;;;;;;;10.90;63.20;;;;;;5069882;27;86109;-48
2022/05/04 11:21:15;;;;;;;;;;;10.90;63.30;;;;;;5069446;27;86830;-48
2022/05/04 11:23:51;;;;;;;;;;;11.00;63.30;;;;;;5071474;27;87587;-48
2022/05/04 11:26:22;;;;;;;;;;;11.00;63.20;;;;;;5068581;27;87998;-48
2022/05/04 11:28:48;;;;;;;;;;;11.00;63.10;;;;;;5068762;27;88994;-49
2022/05/04 11:31:14;;;;;;;;;;;11.00;63.10;;;;;;5069188;27;86957;-48
2022/05/04 11:33:42;;;;;;;;;;;11.10;63.20;;;;;;5069280;27;87044;-48
2022/05/04 11:36:07;;;;;;;;;;;11.10;63.30;;;;;;5068810;27;88408;-48
2022/05/04 11:38:33;;;;;;;;;;;11.10;63.20;;;;;;5069339;27;87177;-48
2022/05/04 11:41:00;;;;;;;;;;;11.20;63.00;;;;;;5069287;27;87352;-48
2022/05/04 11:43:27;;;;;;;;;;;11.10;63.20;;;;;;5069433;27;86622;-51
2022/05/04 11:45:53;;;;;;;;;;;11.20;63.20;;;;;;5071772;27;86916;-48
2022/05/04 11:48:21;;;;;;;;;;;11.20;63.00;;;;;;5068770;27;87498;-49
2022/05/04 11:50:47;;;;;;;;;;;11.30;63.20;;;;;;5068294;27;87780;-49
2022/05/04 11:53:13;;;;;;;;;;;11.30;62.90;;;;;;5069102;27;87778;-48
2022/05/04 11:55:39;;;;;;;;;;;11.40;62.70;;;;;;5068429;27;87496;-48
2022/05/04 11:58:09;;;;;;;;;;;11.40;63.00;;;;;;5068739;27;86838;-49
2022/05/04 12:00:35;;;;;;;;;;;11.40;62.90;;;;;;5068758;27;87939;-48
2022/05/04 12:03:01;;;;;;;;;;;11.40;63.20;;;;;;5082136;27;87411;-48
2022/05/04 12:05:26;;;;;;;;;;;11.40;63.10;;;;;;5089181;27;86905;-48
2022/05/04 12:07:52;;;;;;;;;;;11.40;63.10;;;;;;5091271;27;87057;-48
2022/05/04 12:10:17;;;;;;;;;;;11.50;63.10;;;;;;5089311;27;86820;-49
2022/05/04 12:12:43;;;;;;;;;;;11.40;63.00;;;;;;5089032;27;87885;-48
2022/05/04 12:15:10;;;;;;;;;;;11.50;63.00;;;;;;5087839;27;89531;-48
2022/05/04 12:17:36;;;;;;;;;;;11.50;63.00;;;;;;5070498;27;87037;-48
2022/05/04 12:20:03;;;;;;;;;;;11.50;62.90;;;;;;5088800;27;88071;-48
2022/05/04 12:22:29;;;;;;;;;;;11.50;62.70;;;;;;5088558;27;88407;-48
2022/05/04 12:24:55;;;;;;;;;;;11.50;62.80;;;;;;5088810;27;86871;-50
2022/05/04 12:27:21;;;;;;;;;;;11.60;62.80;;;;;;5088781;27;88026;-48
2022/05/04 12:35:15;;;;;;;;;;;11.70;62.90;;;;;;5088521;27;87127;-48
2022/05/04 12:37:41;;;;;;;;;;;11.70;62.80;;;;;;5088645;27;86758;-50
2022/05/04 12:40:07;;;;;;;;;;;11.80;62.70;;;;;;5088023;27;88038;-48
2022/05/04 12:42:33;;;;;;;;;;;11.80;62.70;;;;;;5088104;27;88873;-48
2022/05/04 12:44:59;;;;;;;;;;;11.70;62.70;;;;;;5088477;27;86744;-48
2022/05/04 12:47:24;;;;;;;;;;;11.80;62.80;;;;;;5088549;27;88141;-48
2022/05/04 12:49:50;;;;;;;;;;;11.80;62.70;;;;;;5088019;27;88643;-48
2022/05/04 12:52:16;;;;;;;;;;;11.80;62.60;;;;;;5091193;27;86839;-48
2022/05/04 12:54:42;;;;;;;;;;;11.90;62.60;;;;;;5087971;27;88082;-51
2022/05/04 12:57:08;;;;;;;;;;;11.90;62.50;;;;;;5089113;27;86159;-49
2022/05/04 12:59:34;;;;;;;;;;;12.00;62.40;;;;;;5088278;27;87332;-49
2022/05/04 13:02:00;;;;;;;;;;;12.00;62.30;;;;;;5087446;27;87857;-48
2022/05/04 13:04:26;;;;;;;;;;;12.00;62.30;;;;;;5087445;27;87971;-50
2022/05/04 13:06:52;;;;;;;;;;;12.00;62.20;;;;;;5088450;27;87733;-49
2022/05/04 13:09:17;;;;;;;;;;;12.10;62.20;;;;;;5087653;27;88435;-49
2022/05/04 13:11:44;;;;;;;;;;;12.10;62.20;;;;;;5091416;27;86901;-51
2022/05/04 13:14:09;;;;;;;;;;;12.10;62.20;;;;;;5087690;27;88701;-48
2022/05/04 13:16:36;;;;;;;;;;;12.20;62.00;;;;;;5087958;27;87134;-51
2022/05/04 13:19:04;;;;;;;;;;;12.20;62.10;;;;;;5088029;27;88053;-48
2022/05/04 13:21:30;;;;;;;;;;;12.20;62.10;;;;;;5088049;27;86860;-48
2022/05/04 13:23:55;;;;;;;;;;;12.30;61.90;;;;;;5088173;27;86961;-48
2022/05/04 13:26:21;;;;;;;;;;;12.30;61.90;;;;;;5088107;27;86866;-48
2022/05/04 13:28:46;;;;;;;;;;;12.30;62.60;;;;;;5086642;27;89517;-48
2022/05/04 13:31:12;;;;;;;;;;;12.40;61.90;;;;;;5087794;27;87134;-48
2022/05/04 13:33:39;;;;;;;;;;;12.30;62.00;;;;;;5090343;27;87976;-48
2022/05/04 13:36:05;;;;;;;;;;;12.40;62.00;;;;;;5087719;27;86720;-48
2022/05/04 13:38:31;;;;;;;;;;;12.40;61.60;;;;;;5084697;27;86994;-49
2022/05/04 13:40:57;;;;;;;;;;;12.50;61.90;;;;;;5087279;27;87297;-48
2022/05/04 13:43:24;;;;;;;;;;;12.50;61.80;;;;;;5087581;27;86846;-49
2022/05/04 13:45:50;;;;;;;;;;;12.50;62.00;;;;;;5087982;27;87900;-48
2022/05/04 13:48:15;;;;;;;;;;;12.50;61.90;;;;;;5087298;27;87732;-48
2022/05/04 13:53:27;;;;;;;;;;;12.50;62.00;;;;;;5087215;27;87727;-48
2022/05/04 13:55:53;;;;;;;;;;;12.60;62.00;;;;;;5089906;27;87760;-49
2022/05/04 13:58:20;;;;;;;;;;;12.60;61.90;;;;;;5087356;27;88019;-48
2022/05/04 14:00:46;;;;;;;;;;;12.60;61.80;;;;;;5086160;27;87669;-48
2022/05/04 14:03:12;;;;;;;;;;;12.70;61.70;;;;;;5087167;27;87099;-51
2022/05/04 14:05:38;;;;;;;;;;;12.70;61.40;;;;;;5087411;27;88100;-49
2022/05/04 14:08:04;;;;;;;;;;;12.70;61.40;;;;;;5087201;27;87519;-48
2022/05/04 14:10:30;;;;;;;;;;;12.80;61.30;;;;;;5087530;27;86023;-48
2022/05/04 14:12:58;;;;;;;;;;;12.80;61.10;;;;;;5087248;27;87386;-48
2022/05/04 14:15:24;;;;;;;;;;;12.80;61.20;;;;;;5086758;27;88747;-48
2022/05/04 14:17:50;;;;;;;;;;;12.80;61.20;;;;;;5089462;27;87727;-48
2022/05/04 14:20:16;;;;;;;;;;;12.90;61.10;;;;;;5086673;27;89067;-49
2022/05/04 14:22:41;;;;;;;;;;;12.90;60.90;;;;;;5087022;27;86901;-49
2022/05/04 14:25:07;;;;;;;;;;;12.90;60.90;;;;;;5086978;27;88075;-49
2022/05/04 14:27:33;;;;;;;;;;;12.90;60.70;;;;;;5086648;27;88324;-49
2022/05/04 14:29:58;;;;;;;;;;;13.00;60.60;;;;;;5087214;27;86934;-49
2022/05/04 14:32:24;;;;;;;;;;;13.00;60.50;;;;;;5090521;27;86971;-49
2022/05/04 14:34:50;;;;;;;;;;;13.00;60.50;;;;;;5091067;27;86533;-49
2022/05/04 14:37:16;;;;;;;;;;;13.10;60.50;;;;;;5090523;27;87025;-49
2022/05/04 14:39:42;;;;;;;;;;;13.10;60.60;;;;;;5093008;27;88047;-49
2022/05/04 14:42:07;;;;;;;;;;;13.10;60.20;;;;;;5089734;27;87773;-49
2022/05/04 14:44:33;;;;;;;;;;;13.00;60.50;;;;;;5090362;27;88029;-49
2022/05/04 14:46:59;;;;;;;;;;;13.00;60.10;;;;;;5090015;27;88312;-49
2022/05/04 14:49:25;;;;;;;;;;;13.00;60.10;;;;;;5090249;27;87195;-49
2022/05/04 14:51:50;;;;;;;;;;;13.00;60.30;;;;;;5090276;27;88020;-49
2022/05/04 14:54:16;;;;;;;;;;;13.00;60.30;;;;;;5089861;27;87490;-49
2022/05/04 14:56:42;;;;;;;;;;;13.10;60.20;;;;;;5090271;27;86897;-50
2022/05/04 14:59:08;;;;;;;;;;;13.10;60.30;;;;;;5093447;27;86075;-49
2022/05/04 15:01:33;;;;;;;;;;;13.10;60.20;;;;;;5089913;27;87218;-47
2022/05/04 15:06:44;;;;;;;;;;;13.10;60.80;;;;;;5089253;27;87923;-47
2022/05/04 15:09:10;;;;;;;;;;;13.10;60.50;;;;;;5090041;27;86938;-47
2022/05/04 15:11:36;;;;;;;;;;;13.10;60.50;;;;;;5090256;27;86883;-47
2022/05/04 15:14:01;;;;;;;;;;;13.10;60.70;;;;;;5089540;27;88688;-47
2022/05/04 15:16:27;;;;;;;;;;;13.10;60.90;;;;;;5089894;27;86946;-49
2022/05/04 15:18:53;;;;;;;;;;;13.20;60.80;;;;;;5089807;27;88379;-49
2022/05/04 15:21:18;;;;;;;;;;;13.30;60.50;;;;;;5092363;27;88510;-48
2022/05/04 15:23:45;;;;;;;;;;;13.30;60.30;;;;;;5090303;27;87880;-48
2022/05/04 15:26:11;;;;;;;;;;;13.30;60.20;;;;;;5089571;27;87393;-48
2022/05/04 15:28:36;;;;;;;;;;;13.40;60.10;;;;;;5089696;27;87125;-49
2022/05/04 15:31:03;;;;;;;;;;;13.40;60.10;;;;;;5088836;27;87990;-49
2022/05/04 15:33:28;;;;;;;;;;;13.40;59.70;;;;;;5089427;27;87685;-49
2022/05/04 15:35:54;;;;;;;;;;;13.50;59.70;;;;;;5089870;27;86826;-49
2022/05/04 15:38:20;;;;;;;;;;;13.50;59.00;;;;;;5090007;27;86881;-49
2022/05/04 15:40:47;;;;;;;;;;;13.50;58.70;;;;;;5089169;27;88712;-49
2022/05/04 15:43:12;;;;;;;;;;;13.50;58.60;;;;;;5091110;27;87024;-50
2022/05/04 15:45:39;;;;;;;;;;;13.50;58.80;;;;;;5089111;27;87581;-50
2022/05/04 15:48:05;;;;;;;;;;;13.50;58.60;;;;;;5089935;27;86368;-49
2022/05/04 15:50:31;;;;;;;;;;;13.50;58.70;;;;;;5089287;27;87308;-49
2022/05/04 15:52:57;;;;;;;;;;;13.50;58.50;;;;;;5089251;27;87315;-49
2022/05/04 15:55:23;;;;;;;;;;;13.60;58.50;;;;;;5088627;27;87806;-49
2022/05/04 15:57:48;;;;;;;;;;;13.60;58.80;;;;;;5089174;27;88813;-49
2022/05/04 16:00:14;;;;;;;;;;;13.60;58.90;;;;;;5088799;27;88391;-49
2022/05/04 16:05:26;;;;;;;;;;;13.60;58.70;;;;;;5092107;27;86874;-50
2022/05/04 16:07:51;;;;;;;;;;;13.70;58.60;;;;;;5089014;27;86958;-49
2022/05/04 16:10:17;;;;;;;;;;;13.70;58.90;;;;;;5088947;27;88027;-46
2022/05/04 16:12:43;;;;;;;;;;;13.70;58.90;;;;;;5089126;27;88257;-49
2022/05/04 16:15:09;;;;;;;;;;;13.70;58.90;;;;;;5089308;27;86815;-49
2022/05/04 16:23:04;;;;;;;;;;;13.70;59.00;;;;;;5085753;27;86831;-49
2022/05/04 16:25:30;;;;;;;;;;;13.70;59.20;;;;;;5088751;27;87886;-49
2022/05/04 16:27:56;;;;;;;;;;;13.80;59.10;;;;;;5091209;27;88833;-49
2022/05/04 16:30:22;;;;;;;;;;;13.70;59.00;;;;;;5088780;27;86849;-49
2022/05/04 16:32:47;;;;;;;;;;;13.80;59.20;;;;;;5088390;27;87929;-49
2022/05/04 16:35:13;;;;;;;;;;;13.70;59.00;;;;;;5088834;27;86935;-49
2022/05/04 16:37:38;;;;;;;;;;;13.80;59.10;;;;;;5089035;27;88048;-49
2022/05/04 16:40:05;;;;;;;;;;;13.80;59.30;;;;;;5088401;27;87476;-49
2022/05/04 16:42:30;;;;;;;;;;;13.70;59.00;;;;;;5088449;27;87094;-50
2022/05/04 16:44:56;;;;;;;;;;;13.70;59.20;;;;;;5087769;27;87954;-47
2022/05/04 16:47:21;;;;;;;;;;;13.70;59.20;;;;;;5088079;27;88457;-49
2022/05/04 16:49:47;;;;;;;;;;;13.70;59.20;;;;;;5091208;27;87261;-49
2022/05/04 16:52:13;;;;;;;;;;;13.80;59.20;;;;;;5088203;27;87504;-49
2022/05/04 16:54:38;;;;;;;;;;;13.70;59.20;;;;;;5088213;27;87400;-49
2022/05/04 16:57:04;;;;;;;;;;;13.80;59.30;;;;;;5088578;27;86894;-49
2022/05/04 16:59:30;;;;;;;;;;;13.80;59.30;;;;;;5087941;27;87451;-49
2022/05/04 17:01:56;;;;;;;;;;;13.80;59.40;;;;;;5088355;27;86025;-49
2022/05/04 17:04:22;;;;;;;;;;;13.80;59.30;;;;;;5088350;27;86956;-49
2022/05/04 17:06:47;;;;;;;;;;;13.80;59.40;;;;;;5087876;27;87503;-49
2022/05/04 17:09:14;;;;;;;;;;;13.80;59.30;;;;;;5090534;27;87803;-49
2022/05/04 17:11:40;;;;;;;;;;;13.80;59.40;;;;;;5087680;27;88613;-49
2022/05/04 17:14:06;;;;;;;;;;;13.80;59.40;;;;;;5088015;27;86914;-49
2022/05/04 17:16:32;;;;;;;;;;;13.80;59.30;;;;;;5087251;27;87000;-49
2022/05/04 17:18:57;;;;;;;;;;;13.80;59.30;;;;;;5087464;27;89182;-49
2022/05/04 17:21:23;;;;;;;;;;;13.80;59.30;;;;;;5088084;27;86792;-49
2022/05/04 17:23:48;;;;;;;;;;;13.80;59.30;;;;;;5088069;27;86916;-49
2022/05/04 17:26:14;;;;;;;;;;;13.80;59.20;;;;;;5088120;27;86699;-49
2022/05/04 17:28:40;;;;;;;;;;;13.80;59.20;;;;;;5087628;27;87266;-49
2022/05/04 17:31:06;;;;;;;;;;;13.80;59.20;;;;;;5090332;27;87075;-49
2022/05/04 17:39:04;;;;;;;;;;;13.90;59.10;;;;;;5087584;27;87596;-49
2022/05/04 17:41:30;;;;;;;;;;;13.90;59.00;;;;;;5087908;27;86911;-47
2022/05/04 17:43:56;;;;;;;;;;;13.90;59.10;;;;;;5087812;27;86984;-47
2022/05/04 17:46:22;;;;;;;;;;;14.00;59.10;;;;;;5087238;27;87644;-54
2022/05/04 17:48:48;;;;;;;;;;;13.90;59.10;;;;;;5087454;27;86840;-49
2022/05/04 17:51:14;;;;;;;;;;;14.00;59.30;;;;;;5088153;27;86684;-50
2022/05/04 17:53:40;;;;;;;;;;;14.00;59.20;;;;;;5089196;27;87826;-48
2022/05/04 17:56:07;;;;;;;;;;;14.00;59.30;;;;;;5087443;27;87126;-50
2022/05/04 17:58:33;;;;;;;;;;;14.00;59.40;;;;;;5086137;27;89827;-50
2022/05/04 18:00:59;;;;;;;;;;;14.00;59.50;;;;;;5087405;27;86859;-47
2022/05/04 18:03:34;;;;;;;;;;;13.90;59.40;;;;;;5087362;27;86905;-48
2022/05/04 18:06:04;;;;;;;;;;;14.00;59.60;;;;;;5085929;27;88609;-50
2022/05/04 18:08:30;;;;;;;;;;;13.90;59.50;;;;;;5087183;27;86843;-50
2022/05/04 18:10:56;;;;;;;;;;;13.90;59.50;;;;;;5087106;27;87807;-47
2022/05/04 18:13:22;;;;;;;;;;;13.90;59.50;;;;;;5086747;27;87804;-49
2022/05/04 18:15:47;;;;;;;;;;;14.00;59.60;;;;;;5090836;27;86375;-47
2022/05/04 18:18:13;;;;;;;;;;;14.00;59.60;;;;;;5086907;27;87581;-51
2022/05/04 18:20:39;;;;;;;;;;;13.90;59.70;;;;;;5087132;27;87066;-50
2022/05/04 18:23:07;;;;;;;;;;;14.00;60.30;;;;;;5086768;27;88012;-49
2022/05/04 18:25:34;;;;;;;;;;;14.00;59.80;;;;;;5086873;27;87293;-48
2022/05/04 18:27:59;;;;;;;;;;;14.00;59.70;;;;;;5086887;27;86990;-48
2022/05/04 18:30:25;;;;;;;;;;;13.90;59.60;;;;;;5087161;27;86836;-47
2022/05/04 18:32:50;;;;;;;;;;;14.00;59.70;;;;;;5086533;27;88501;-47
2022/05/04 18:35:19;;;;;;;;;;;14.00;59.70;;;;;;5086760;27;86889;-47
2022/05/04 18:37:45;;;;;;;;;;;14.00;59.70;;;;;;5089439;27;87276;-49
2022/05/04 18:40:11;;;;;;;;;;;14.00;59.80;;;;;;5086863;27;86127;-47
2022/05/04 18:42:37;;;;;;;;;;;14.00;59.70;;;;;;5086877;27;87324;-47
2022/05/04 18:45:03;;;;;;;;;;;13.90;59.80;;;;;;5086306;27;88504;-50
2022/05/04 18:47:29;;;;;;;;;;;13.90;59.80;;;;;;5086475;27;88022;-49
2022/05/04 18:49:55;;;;;;;;;;;13.90;59.80;;;;;;5086575;27;89106;-47
2022/05/04 18:52:21;;;;;;;;;;;14.00;59.90;;;;;;5086196;27;87655;-48
2022/05/04 18:54:47;;;;;;;;;;;14.00;59.90;;;;;;5086534;27;86786;-48
2022/05/04 18:57:12;;;;;;;;;;;13.90;59.80;;;;;;5086961;27;86814;-48
2022/05/04 18:59:39;;;;;;;;;;;13.90;59.80;;;;;;5089084;27;88563;-47
2022/05/04 19:02:05;;;;;;;;;;;14.00;59.90;;;;;;5086446;27;88145;-50
2022/05/04 19:04:31;;;;;;;;;;;14.00;59.90;;;;;;5086579;27;87884;-50
2022/05/04 19:06:56;;;;;;;;;;;13.90;59.80;;;;;;5086662;27;86825;-52
2022/05/04 19:09:24;;;;;;;;;;;13.90;59.90;;;;;;5086426;27;87163;-49
2022/05/04 19:11:50;;;;;;;;;;;13.90;59.80;;;;;;5084780;27;88734;-49
2022/05/04 19:14:15;;;;;;;;;;;13.90;59.80;;;;;;5086664;27;87242;-47
2022/05/04 19:16:44;;;;;;;;;;;14.00;59.90;;;;;;5087013;27;87913;-47
2022/05/04 19:19:11;;;;;;;;;;;13.90;59.80;;;;;;5092503;27;87673;-48
2022/05/04 19:21:37;;;;;;;;;;;14.00;59.90;;;;;;5089940;27;88324;-50
2022/05/04 19:24:03;;;;;;;;;;;13.90;59.90;;;;;;5089479;27;88966;-50
2022/05/04 19:26:28;;;;;;;;;;;13.90;59.90;;;;;;5090064;27;86922;-48
2022/05/04 19:28:54;;;;;;;;;;;13.90;59.90;;;;;;5089618;27;86978;-47
2022/05/04 19:31:20;;;;;;;;;;;13.90;59.90;;;;;;5089230;27;88737;-48
2022/05/04 19:33:46;;;;;;;;;;;13.90;59.80;;;;;;5089703;27;87039;-47
2022/05/04 19:36:12;;;;;;;;;;;13.90;59.80;;;;;;5089024;27;87781;-48
2022/05/04 19:38:37;;;;;;;;;;;13.90;59.80;;;;;;5089259;27;87652;-47
2022/05/04 19:41:03;;;;;;;;;;;13.90;59.80;;;;;;5092724;27;86839;-51
2022/05/04 19:43:29;;;;;;;;;;;13.90;59.80;;;;;;5089167;27;88552;-48
2022/05/04 19:45:54;;;;;;;;;;;13.90;59.80;;;;;;5089685;27;87002;-47
2022/05/04 19:48:20;;;;;;;;;;;13.90;59.80;;;;;;5089750;27;86925;-47
2022/05/04 19:50:46;;;;;;;;;;;13.90;59.90;;;;;;5088838;27;88400;-50
2022/05/04 19:53:12;;;;;;;;;;;13.90;59.80;;;;;;5090218;27;86114;-47
2022/05/04 19:55:38;;;;;;;;;;;13.90;59.80;;;;;;5089336;27;87352;-51
2022/05/04 19:58:04;;;;;;;;;;;13.90;59.80;;;;;;5088897;27;88290;-51
2022/05/04 20:00:30;;;;;;;;;;;13.90;59.80;;;;;;5088548;27;87837;-50
2022/05/04 20:02:56;;;;;;;;;;;13.90;59.80;;;;;;5091360;27;88848;-48
2022/05/04 20:05:22;;;;;;;;;;;13.90;59.80;;;;;;5089108;27;86901;-47
2022/05/04 20:07:47;;;;;;;;;;;14.00;59.90;;;;;;5089213;27;87061;-50
2022/05/04 20:10:13;;;;;;;;;;;13.90;59.80;;;;;;5088451;27;88896;-49
2022/05/04 20:12:39;;;;;;;;;;;13.90;59.80;;;;;;5089045;27;87299;-51
2022/05/04 20:15:05;;;;;;;;;;;13.90;59.80;;;;;;5089107;27;87851;-47
2022/05/04 20:17:30;;;;;;;;;;;13.90;59.80;;;;;;5089050;27;87704;-50
2022/05/04 20:19:56;;;;;;;;;;;13.90;59.90;;;;;;5088908;27;87233;-48
2022/05/04 20:22:22;;;;;;;;;;;13.90;59.90;;;;;;5088873;27;87849;-49
2022/05/04 20:24:47;;;;;;;;;;;13.90;59.90;;;;;;5090705;27;89574;-49
2022/05/04 20:27:13;;;;;;;;;;;13.90;59.90;;;;;;5089005;27;87631;-47
2022/05/04 20:29:39;;;;;;;;;;;13.90;59.90;;;;;;5087609;27;88645;-48
2022/05/04 20:32:06;;;;;;;;;;;13.90;59.90;;;;;;5089035;27;86799;-48
2022/05/04 20:34:32;;;;;;;;;;;13.90;59.90;;;;;;5088715;27;87854;-50
2022/05/04 20:36:57;;;;;;;;;;;13.90;60.00;;;;;;5088352;27;87639;-51
2022/05/04 20:39:23;;;;;;;;;;;13.90;60.00;;;;;;5088850;27;86891;-49
2022/05/04 20:41:49;;;;;;;;;;;13.90;60.00;;;;;;5089096;27;88156;-48
2022/05/04 20:44:15;;;;;;;;;;;13.90;60.00;;;;;;5087996;27;87502;-48
2022/05/04 20:46:43;;;;;;;;;;;13.90;60.00;;;;;;5091361;27;86826;-48
2022/05/04 20:49:09;;;;;;;;;;;13.90;60.00;;;;;;5087259;27;89721;-48
2022/05/04 20:54:20;;;;;;;;;;;13.90;60.00;;;;;;5085352;27;86942;-47
2022/05/04 20:56:46;;;;;;;;;;;13.80;59.90;;;;;;5088190;27;87371;-51
2022/05/04 20:59:12;;;;;;;;;;;13.90;60.00;;;;;;5088482;27;87099;-49
2022/05/04 21:01:38;;;;;;;;;;;13.90;60.00;;;;;;5087914;27;88135;-50
2022/05/04 21:04:04;;;;;;;;;;;13.80;59.90;;;;;;5087798;27;88578;-48
2022/05/04 21:06:33;;;;;;;;;;;13.80;59.90;;;;;;5088629;27;86112;-47
2022/05/04 21:08:59;;;;;;;;;;;13.80;59.90;;;;;;5091099;27;86754;-48
2022/05/04 21:11:26;;;;;;;;;;;13.80;60.00;;;;;;5087976;27;86908;-47
2022/05/04 21:13:52;;;;;;;;;;;13.80;60.00;;;;;;5087484;27;87895;-47
2022/05/04 21:16:18;;;;;;;;;;;13.80;60.00;;;;;;5087702;27;88899;-50
2022/05/04 21:18:43;;;;;;;;;;;13.80;60.00;;;;;;5087916;27;86846;-50
2022/05/04 21:21:09;;;;;;;;;;;13.80;60.00;;;;;;5087998;27;87739;-47
2022/05/04 21:23:35;;;;;;;;;;;13.80;60.00;;;;;;5087579;27;88646;-50
2022/05/04 21:26:01;;;;;;;;;;;13.80;60.00;;;;;;5087777;27;86843;-49
2022/05/04 21:28:27;;;;;;;;;;;13.80;59.90;;;;;;5090800;27;87106;-48
2022/05/04 21:30:53;;;;;;;;;;;13.80;59.90;;;;;;5088164;27;86124;-47
2022/05/04 21:33:19;;;;;;;;;;;13.80;59.90;;;;;;5087767;27;86862;-49
2022/05/04 21:35:44;;;;;;;;;;;13.80;59.90;;;;;;5087628;27;87513;-51
2022/05/04 21:38:10;;;;;;;;;;;13.80;59.90;;;;;;5087065;27;87821;-47
2022/05/04 21:40:36;;;;;;;;;;;13.80;59.90;;;;;;5086371;27;87933;-47
2022/05/04 21:43:03;;;;;;;;;;;13.80;59.90;;;;;;5087210;27;87824;-47
2022/05/04 21:45:29;;;;;;;;;;;13.80;59.80;;;;;;5087666;27;86977;-49
2022/05/04 21:47:55;;;;;;;;;;;13.80;59.90;;;;;;5087687;27;87887;-50
2022/05/04 21:50:21;;;;;;;;;;;13.70;59.80;;;;;;5090251;27;87004;-51
2022/05/04 21:52:47;;;;;;;;;;;13.80;59.90;;;;;;5087479;27;87658;-47
2022/05/04 21:55:12;;;;;;;;;;;13.70;59.80;;;;;;5087564;27;87023;-48
2022/05/04 21:57:38;;;;;;;;;;;13.70;59.80;;;;;;5087387;27;86937;-47
2022/05/04 22:00:05;;;;;;;;;;;13.70;59.80;;;;;;5087461;27;87086;-48
2022/05/04 22:02:30;;;;;;;;;;;13.70;59.80;;;;;;5086014;27;89478;-47
2022/05/04 22:04:57;;;;;;;;;;;13.70;59.80;;;;;;5087565;27;86823;-48
2022/05/04 22:07:23;;;;;;;;;;;13.70;59.80;;;;;;5087555;27;86870;-47
2022/05/04 22:09:49;;;;;;;;;;;13.70;59.80;;;;;;5086780;27;87623;-48
2022/05/04 22:14:59;;;;;;;;;;;13.70;59.80;;;;;;5087073;27;87212;-49
2022/05/04 22:17:24;;;;;;;;;;;13.70;59.80;;;;;;5087511;27;86826;-48
2022/05/04 22:19:50;;;;;;;;;;;13.60;59.70;;;;;;5087706;27;87936;-48
2022/05/04 22:22:16;;;;;;;;;;;13.70;59.80;;;;;;5086677;27;87674;-49
2022/05/04 22:24:42;;;;;;;;;;;13.70;59.70;;;;;;5086991;27;86858;-50
2022/05/04 22:27:07;;;;;;;;;;;13.70;59.70;;;;;;5086444;27;88076;-47
2022/05/04 22:29:33;;;;;;;;;;;13.70;59.70;;;;;;5086601;27;87766;-50
2022/05/04 22:31:58;;;;;;;;;;;13.70;60.30;;;;;;5087240;27;87162;-48
2022/05/04 22:34:24;;;;;;;;;;;13.70;59.60;;;;;;5089805;27;86816;-48
2022/05/04 22:36:50;;;;;;;;;;;13.60;59.60;;;;;;5086961;27;86881;-47
2022/05/04 22:39:15;;;;;;;;;;;13.60;59.60;;;;;;5087157;27;86823;-48
2022/05/04 22:41:42;;;;;;;;;;;13.60;59.60;;;;;;5086733;27;87454;-50
2022/05/04 22:44:07;;;;;;;;;;;13.60;59.60;;;;;;5087326;27;86422;-47
2022/05/04 22:46:33;;;;;;;;;;;13.60;59.70;;;;;;5086836;27;86836;-47
2022/05/04 22:48:59;;;;;;;;;;;13.60;59.70;;;;;;5086626;27;87436;-48
2022/05/04 22:51:24;;;;;;;;;;;13.50;59.60;;;;;;5086067;27;87895;-47
2022/05/04 22:53:50;;;;;;;;;;;13.60;59.70;;;;;;5090279;27;88935;-47
2022/05/04 22:56:15;;;;;;;;;;;13.60;59.60;;;;;;5093201;27;87584;-47
2022/05/04 22:58:41;;;;;;;;;;;13.50;59.60;;;;;;5090625;27;86812;-47
2022/05/04 23:01:07;;;;;;;;;;;13.50;59.60;;;;;;5090071;27;86812;-47
2022/05/04 23:03:32;;;;;;;;;;;13.50;59.70;;;;;;5089893;27;87037;-48
2022/05/04 23:05:58;;;;;;;;;;;13.50;59.60;;;;;;5089522;27;86835;-47
2022/05/04 23:08:25;;;;;;;;;;;13.50;59.60;;;;;;5090171;27;88001;-47
2022/05/04 23:10:51;;;;;;;;;;;13.50;59.60;;;;;;5089995;27;87080;-50
2022/05/04 23:13:17;;;;;;;;;;;13.50;59.70;;;;;;5090030;27;88233;-51
2022/05/04 23:18:27;;;;;;;;;;;13.50;59.70;;;;;;5093254;27;86799;-49
2022/05/04 23:20:53;;;;;;;;;;;13.40;59.60;;;;;;5089482;27;88625;-47